createdAt,value
2024-01-01T00:00:57.218Z,35.87
2024-01-01T00:10:59.383Z,18.63
2024-01-01T00:21:03.360Z,15.43
2024-01-01T00:31:05.553Z,11.73
2024-01-01T00:41:07.774Z,11.30
2024-01-01T00:51:09.873Z,9.87
2024-01-01T01:01:12.050Z,11.53
2024-01-01T01:11:14.159Z,7.97
2024-01-01T01:28:23.474Z,7.20
2024-01-01T01:38:25.560Z,15.10
2024-01-01T01:48:28.734Z,12.83
2024-01-01T01:58:31.510Z,21.23
2024-01-01T02:08:33.999Z,16.73
2024-01-01T02:18:36.193Z,22.73
2024-01-01T02:28:38.389Z,25.57
2024-01-01T02:38:40.552Z,20.93
2024-01-01T02:48:42.744Z,23.37
2024-01-01T02:58:45.489Z,21.47
2024-01-01T03:08:47.617Z,18.60
2024-01-01T03:18:49.767Z,20.00
2024-01-01T03:28:51.927Z,17.90
2024-01-01T03:38:54.068Z,20.10
2024-01-01T03:48:56.217Z,21.07
2024-01-01T03:58:58.376Z,20.33
2024-01-01T04:09:00.530Z,20.30
2024-01-01T04:19:02.733Z,20.80
2024-01-01T04:29:04.962Z,19.67
2024-01-01T04:39:07.118Z,15.90
2024-01-01T04:49:09.239Z,17.23
2024-01-01T04:59:11.593Z,18.30
2024-01-01T05:09:13.751Z,14.20
2024-01-01T05:19:15.860Z,13.57
2024-01-01T05:29:17.986Z,10.23
2024-01-01T05:39:20.173Z,9.50
2024-01-01T05:49:22.924Z,8.83
2024-01-01T05:59:25.046Z,13.47
2024-01-01T06:09:27.436Z,13.13
2024-01-01T06:19:29.892Z,12.00
2024-01-01T06:29:32.054Z,10.67
2024-01-01T06:39:34.113Z,8.10
2024-01-01T06:49:36.446Z,7.57
2024-01-01T06:59:38.684Z,10.27
2024-01-01T07:09:40.808Z,5.80
2024-01-01T07:19:43.805Z,4.53
2024-01-01T07:29:45.909Z,10.13
2024-01-01T07:39:47.974Z,5.60
2024-01-01T07:49:50.066Z,9.17
2024-01-01T07:59:56.499Z,5.37
2024-01-01T08:09:58.998Z,6.47
2024-01-01T08:20:01.228Z,8.73
2024-01-01T08:30:04.722Z,11.07
2024-01-01T08:40:07.290Z,8.17
2024-01-01T08:50:09.718Z,10.33
2024-01-01T09:00:12.878Z,8.23
2024-01-01T09:10:18.088Z,6.17
2024-01-01T09:20:20.316Z,13.57
2024-01-01T09:30:22.593Z,10.17
2024-01-01T09:40:24.745Z,12.03
2024-01-01T09:50:26.893Z,10.53
2024-01-01T10:00:29.427Z,5.63
2024-01-01T10:10:31.544Z,10.23
2024-01-01T10:20:33.642Z,19.40
2024-01-01T10:30:35.823Z,10.27
2024-01-01T10:40:37.989Z,6.50
2024-01-01T10:50:47.788Z,7.23
2024-01-01T11:01:00.688Z,11.40
2024-01-01T11:11:34.003Z,6.70
2024-01-01T11:21:36.512Z,5.20
2024-01-01T11:31:38.576Z,9.77
2024-01-01T11:41:40.889Z,11.50
2024-01-01T11:51:56.936Z,6.63
2024-01-01T12:01:59.656Z,6.63
2024-01-01T12:22:23.203Z,7.33
2024-01-01T12:32:25.440Z,3.07
2024-01-01T12:42:27.585Z,8.40
2024-01-01T12:52:29.737Z,11.20
2024-01-01T13:02:31.852Z,4.53
2024-01-01T13:12:33.949Z,6.77
2024-01-01T13:22:36.011Z,4.30
2024-01-01T13:32:39.922Z,8.47
2024-01-01T13:42:42.044Z,5.50
2024-01-01T13:52:44.526Z,8.57
2024-01-01T14:02:46.672Z,8.47
2024-01-01T14:12:49.054Z,7.93
2024-01-01T14:22:51.194Z,5.27
2024-01-01T14:32:55.149Z,7.57
2024-01-01T14:42:57.414Z,4.40
2024-01-01T14:52:59.515Z,9.00
2024-01-01T15:03:03.342Z,17.27
2024-01-01T15:13:06.121Z,8.77
2024-01-01T15:23:08.665Z,10.53
2024-01-01T15:33:11.654Z,7.80
2024-01-01T15:43:14.281Z,8.10
2024-01-01T15:53:16.475Z,15.03
2024-01-01T16:03:18.641Z,15.27
2024-01-01T16:13:21.418Z,19.50
2024-01-01T16:23:24.453Z,21.13
2024-01-01T16:33:26.908Z,13.80
2024-01-01T16:43:29.060Z,11.33
2024-01-01T16:53:31.153Z,9.90
2024-01-01T17:03:33.297Z,12.83
2024-01-01T17:13:35.153Z,14.10
2024-01-01T17:23:37.471Z,13.87
2024-01-01T17:33:40.770Z,8.47
2024-01-01T17:43:42.947Z,11.30
2024-01-01T17:53:45.229Z,15.40
2024-01-01T18:03:47.567Z,13.37
2024-01-01T18:13:49.847Z,8.90
2024-01-01T18:23:53.286Z,8.67
2024-01-01T18:33:55.446Z,14.27
2024-01-01T18:43:57.656Z,14.90
2024-01-01T18:53:59.788Z,13.87
2024-01-01T19:04:06.817Z,11.07
2024-01-01T19:14:15.923Z,16.57
2024-01-01T19:24:18.044Z,15.30
2024-01-01T19:34:20.139Z,13.97
2024-01-01T19:44:22.276Z,10.63
2024-01-01T19:54:24.750Z,14.67
2024-01-01T20:04:26.908Z,13.37
2024-01-01T20:14:29.042Z,18.63
2024-01-01T20:24:31.173Z,12.80
2024-01-01T20:34:33.573Z,8.27
2024-01-01T20:44:35.853Z,11.27
2024-01-01T20:54:38.139Z,9.00
2024-01-01T21:04:42.018Z,13.10
2024-01-01T21:14:44.173Z,9.27
2024-01-01T21:24:47.902Z,7.67
2024-01-01T21:34:50.121Z,10.17
2024-01-01T21:44:55.681Z,8.90
2024-01-01T21:54:58.176Z,9.13
2024-01-01T22:05:00.525Z,11.10
2024-01-01T22:15:02.678Z,8.37
2024-01-01T22:25:05.176Z,8.83
2024-01-01T22:35:07.633Z,9.93
2024-01-01T22:45:09.838Z,7.30
2024-01-01T22:55:13.003Z,5.60
2024-01-01T23:05:21.838Z,8.80
2024-01-01T23:15:26.374Z,7.40
2024-01-01T23:25:30.094Z,7.43
2024-01-01T23:35:35.093Z,10.47
2024-01-01T23:45:37.213Z,6.67
2024-01-01T23:55:39.308Z,7.50
